sensor_id;sensor_type;location;lat;lon;timestamp;pressure;altitude;pressure_sealevel;temperature;humidity
34034;BME280;63481;52.588;22.472;2023-02-16T00:00:26;101230.61;;;-2.37;100.00
34034;BME280;63481;52.588;22.472;2023-02-16T00:01:38;101233.05;;;-2.36;100.00
34034;BME280;63481;52.588;22.472;2023-02-16T00:02:31;101229.42;;;-2.37;100.00
34034;BME280;63481;52.588;22.472;2023-02-16T00:03:24;101229.77;;;-2.37;100.00
34034;BME280;63481;52.588;22.472;2023-02-16T00:04:25;101228.70;;;-2.39;100.00
34034;BME280;63481;52.588;22.472;2023-02-16T00:06:17;101222.38;;;-2.39;100.00
34034;BME280;63481;52.588;22.472;2023-02-16T00:07:11;101221.11;;;-2.38;100.00
34034;BME280;63481;52.588;22.472;2023-02-16T00:08:04;101219.72;;;-2.38;100.00
34034;BME280;63481;52.588;22.472;2023-02-16T00:08:57;101215.34;;;-2.37;100.00
34034;BME280;63481;52.588;22.472;2023-02-16T00:09:50;101214.19;;;-2.36;100.00
34034;BME280;63481;52.588;22.472;2023-02-16T00:10:44;101211.83;;;-2.34;100.00
34034;BME280;63481;52.588;22.472;2023-02-16T00:11:57;101208.05;;;-2.30;100.00
34034;BME280;63481;52.588;22.472;2023-02-16T00:13:26;101207.49;;;-2.27;100.00
34034;BME280;63481;52.588;22.472;2023-02-16T00:14:39;101205.05;;;-2.19;100.00
34034;BME280;63481;52.588;22.472;2023-02-16T00:15:33;101203.50;;;-2.17;100.00
34034;BME280;63481;52.588;22.472;2023-02-16T00:16:26;101197.97;;;-2.17;100.00
34034;BME280;63481;52.588;22.472;2023-02-16T00:17:19;101197.73;;;-2.16;100.00
34034;BME280;63481;52.588;22.472;2023-02-16T00:18:16;101193.80;;;-2.15;100.00
34034;BME280;63481;52.588;22.472;2023-02-16T00:19:32;101189.50;;;-2.11;100.00
34034;BME280;63481;52.588;22.472;2023-02-16T00:20:26;101187.89;;;-2.10;100.00
34034;BME280;63481;52.588;22.472;2023-02-16T00:21:22;101188.05;;;-2.07;100.00
34034;BME280;63481;52.588;22.472;2023-02-16T00:22:15;101185.26;;;-2.10;100.00
34034;BME280;63481;52.588;22.472;2023-02-16T00:23:08;101188.59;;;-2.10;100.00
34034;BME280;63481;52.588;22.472;2023-02-16T00:24:02;101187.52;;;-2.12;100.00
34034;BME280;63481;52.588;22.472;2023-02-16T00:24:55;101184.92;;;-2.12;100.00
34034;BME280;63481;52.588;22.472;2023-02-16T00:25:49;101187.16;;;-2.15;100.00
34034;BME280;63481;52.588;22.472;2023-02-16T00:26:43;101185.47;;;-2.15;100.00
34034;BME280;63481;52.588;22.472;2023-02-16T00:27:36;101183.45;;;-2.16;100.00
34034;BME280;63481;52.588;22.472;2023-02-16T00:28:29;101184.36;;;-2.17;100.00
34034;BME280;63481;52.588;22.472;2023-02-16T00:29:26;101186.09;;;-2.22;100.00
34034;BME280;63481;52.588;22.472;2023-02-16T00:30:20;101184.52;;;-2.27;100.00
34034;BME280;63481;52.588;22.472;2023-02-16T00:31:18;101183.16;;;-2.33;100.00
34034;BME280;63481;52.588;22.472;2023-02-16T00:32:12;101186.67;;;-2.39;100.00
34034;BME280;63481;52.588;22.472;2023-02-16T00:33:19;101183.61;;;-2.45;100.00
34034;BME280;63481;52.588;22.472;2023-02-16T00:34:32;101181.56;;;-2.51;100.00
34034;BME280;63481;52.588;22.472;2023-02-16T00:35:26;101179.54;;;-2.55;100.00
34034;BME280;63481;52.588;22.472;2023-02-16T00:36:20;101177.48;;;-2.58;100.00
34034;BME280;63481;52.588;22.472;2023-02-16T00:37:13;101176.09;;;-2.63;100.00
34034;BME280;63481;52.588;22.472;2023-02-16T00:38:07;101172.92;;;-2.68;100.00
34034;BME280;63481;52.588;22.472;2023-02-16T00:39:00;101177.79;;;-2.70;100.00
34034;BME280;63481;52.588;22.472;2023-02-16T00:39:53;101172.30;;;-2.71;100.00
34034;BME280;63481;52.588;22.472;2023-02-16T00:40:46;101172.93;;;-2.73;100.00
34034;BME280;63481;52.588;22.472;2023-02-16T00:41:40;101168.88;;;-2.75;100.00
34034;BME280;63481;52.588;22.472;2023-02-16T00:42:46;101168.14;;;-2.77;100.00
34034;BME280;63481;52.588;22.472;2023-02-16T00:43:39;101163.01;;;-2.76;100.00
34034;BME280;63481;52.588;22.472;2023-02-16T00:44:52;101160.05;;;-2.71;100.00
34034;BME280;63481;52.588;22.472;2023-02-16T00:45:46;101158.33;;;-2.66;100.00
34034;BME280;63481;52.588;22.472;2023-02-16T00:46:41;101157.35;;;-2.61;100.00
34034;BME280;63481;52.588;22.472;2023-02-16T00:47:41;101152.15;;;-2.59;100.00
34034;BME280;63481;52.588;22.472;2023-02-16T00:48:34;101152.90;;;-2.55;100.00
34034;BME280;63481;52.588;22.472;2023-02-16T00:49:27;101157.55;;;-2.46;100.00
34034;BME280;63481;52.588;22.472;2023-02-16T00:50:28;101155.34;;;-2.39;100.00
34034;BME280;63481;52.588;22.472;2023-02-16T00:51:21;101153.42;;;-2.33;100.00
34034;BME280;63481;52.588;22.472;2023-02-16T00:53:22;101155.20;;;-2.42;100.00
34034;BME280;63481;52.588;22.472;2023-02-16T00:54:15;101153.14;;;-2.48;100.00
34034;BME280;63481;52.588;22.472;2023-02-16T00:55:17;101152.64;;;-2.53;100.00
34034;BME280;63481;52.588;22.472;2023-02-16T00:56:18;101152.05;;;-2.52;100.00
34034;BME280;63481;52.588;22.472;2023-02-16T00:57:17;101149.27;;;-2.50;100.00
34034;BME280;63481;52.588;22.472;2023-02-16T00:58:21;101149.42;;;-2.50;100.00
34034;BME280;63481;52.588;22.472;2023-02-16T00:59:19;101151.41;;;-2.48;100.00
34034;BME280;63481;52.588;22.472;2023-02-16T01:00:19;101148.50;;;-2.43;100.00
34034;BME280;63481;52.588;22.472;2023-02-16T01:01:14;101144.01;;;-2.44;100.00
34034;BME280;63481;52.588;22.472;2023-02-16T01:02:09;101143.45;;;-2.38;100.00
34034;BME280;63481;52.588;22.472;2023-02-16T01:03:06;101142.86;;;-2.40;100.00
34034;BME280;63481;52.588;22.472;2023-02-16T01:04:04;101142.66;;;-2.36;100.00
34034;BME280;63481;52.588;22.472;2023-02-16T01:04:57;101144.25;;;-2.36;100.00
34034;BME280;63481;52.588;22.472;2023-02-16T01:05:50;101143.54;;;-2.34;100.00
34034;BME280;63481;52.588;22.472;2023-02-16T01:07:10;101142.34;;;-2.34;100.00
34034;BME280;63481;52.588;22.472;2023-02-16T01:08:22;101140.38;;;-2.36;100.00
34034;BME280;63481;52.588;22.472;2023-02-16T01:09:33;101140.33;;;-2.33;100.00
34034;BME280;63481;52.588;22.472;2023-02-16T01:10:44;101135.75;;;-2.35;100.00
34034;BME280;63481;52.588;22.472;2023-02-16T01:11:46;101137.89;;;-2.25;100.00
34034;BME280;63481;52.588;22.472;2023-02-16T01:12:39;101134.52;;;-2.24;100.00
34034;BME280;63481;52.588;22.472;2023-02-16T01:13:35;101133.59;;;-2.28;100.00
34034;BME280;63481;52.588;22.472;2023-02-16T01:14:31;101129.02;;;-2.33;100.00
34034;BME280;63481;52.588;22.472;2023-02-16T01:15:25;101130.80;;;-2.34;100.00
34034;BME280;63481;52.588;22.472;2023-02-16T01:16:21;101126.67;;;-2.34;100.00
34034;BME280;63481;52.588;22.472;2023-02-16T01:17:14;101124.75;;;-2.34;100.00
34034;BME280;63481;52.588;22.472;2023-02-16T01:18:07;101126.63;;;-2.36;100.00
34034;BME280;63481;52.588;22.472;2023-02-16T01:19:00;101120.52;;;-2.39;100.00
34034;BME280;63481;52.588;22.472;2023-02-16T01:19:53;101120.24;;;-2.37;100.00
34034;BME280;63481;52.588;22.472;2023-02-16T01:20:46;101116.75;;;-2.39;100.00
34034;BME280;63481;52.588;22.472;2023-02-16T01:21:39;101118.80;;;-2.39;100.00
34034;BME280;63481;52.588;22.472;2023-02-16T01:22:32;101115.33;;;-2.39;100.00
34034;BME280;63481;52.588;22.472;2023-02-16T01:23:25;101115.67;;;-2.42;100.00
34034;BME280;63481;52.588;22.472;2023-02-16T01:24:18;101109.86;;;-2.44;100.00
34034;BME280;63481;52.588;22.472;2023-02-16T01:25:14;101110.29;;;-2.45;100.00
34034;BME280;63481;52.588;22.472;2023-02-16T01:26:15;101106.05;;;-2.39;100.00
34034;BME280;63481;52.588;22.472;2023-02-16T01:27:12;101105.15;;;-2.35;100.00
34034;BME280;63481;52.588;22.472;2023-02-16T01:28:34;101102.30;;;-2.37;100.00
34034;BME280;63481;52.588;22.472;2023-02-16T01:29:27;101105.28;;;-2.43;100.00
34034;BME280;63481;52.588;22.472;2023-02-16T01:30:22;101104.46;;;-2.46;100.00
34034;BME280;63481;52.588;22.472;2023-02-16T01:31:16;101106.53;;;-2.48;100.00
34034;BME280;63481;52.588;22.472;2023-02-16T01:32:11;101103.36;;;-2.48;100.00
34034;BME280;63481;52.588;22.472;2023-02-16T01:33:03;101105.00;;;-2.46;100.00
34034;BME280;63481;52.588;22.472;2023-02-16T01:33:56;101104.67;;;-2.47;100.00
34034;BME280;63481;52.588;22.472;2023-02-16T01:34:49;101105.27;;;-2.48;100.00
34034;BME280;63481;52.588;22.472;2023-02-16T01:35:41;101103.28;;;-2.49;100.00
34034;BME280;63481;52.588;22.472;2023-02-16T01:36:41;101102.65;;;-2.50;100.00
34034;BME280;63481;52.588;22.472;2023-02-16T01:37:34;101100.67;;;-2.49;100.00
34034;BME280;63481;52.588;22.472;2023-02-16T01:38:28;101096.05;;;-2.50;100.00
34034;BME280;63481;52.588;22.472;2023-02-16T01:39:20;101095.30;;;-2.50;100.00
34034;BME280;63481;52.588;22.472;2023-02-16T01:40:36;101093.20;;;-2.49;100.00
34034;BME280;63481;52.588;22.472;2023-02-16T01:42:46;101090.02;;;-2.54;100.00
34034;BME280;63481;52.588;22.472;2023-02-16T01:43:47;101090.28;;;-2.55;100.00
34034;BME280;63481;52.588;22.472;2023-02-16T01:44:43;101087.21;;;-2.54;100.00
34034;BME280;63481;52.588;22.472;2023-02-16T01:45:40;101086.13;;;-2.53;100.00
34034;BME280;63481;52.588;22.472;2023-02-16T01:47:04;101083.44;;;-2.52;100.00
34034;BME280;63481;52.588;22.472;2023-02-16T01:48:06;101077.01;;;-2.47;100.00
34034;BME280;63481;52.588;22.472;2023-02-16T01:49:04;101077.11;;;-2.46;100.00
34034;BME280;63481;52.588;22.472;2023-02-16T01:49:57;101078.01;;;-2.44;100.00
34034;BME280;63481;52.588;22.472;2023-02-16T01:53:01;101066.96;;;-2.48;100.00
34034;BME280;63481;52.588;22.472;2023-02-16T01:54:16;101065.75;;;-2.48;100.00
34034;BME280;63481;52.588;22.472;2023-02-16T01:56:23;101062.63;;;-2.43;100.00
34034;BME280;63481;52.588;22.472;2023-02-16T01:57:40;101061.67;;;-2.42;100.00
34034;BME280;63481;52.588;22.472;2023-02-16T01:58:49;101061.28;;;-2.35;100.00
34034;BME280;63481;52.588;22.472;2023-02-16T02:02:18;101061.35;;;-2.39;100.00
34034;BME280;63481;52.588;22.472;2023-02-16T02:03:18;101054.92;;;-2.39;100.00
34034;BME280;63481;52.588;22.472;2023-02-16T02:06:14;101050.89;;;-2.42;100.00
34034;BME280;63481;52.588;22.472;2023-02-16T02:07:12;101049.08;;;-2.43;100.00
34034;BME280;63481;52.588;22.472;2023-02-16T02:09:38;101044.44;;;-2.42;100.00
34034;BME280;63481;52.588;22.472;2023-02-16T02:10:40;101042.79;;;-2.46;100.00
34034;BME280;63481;52.588;22.472;2023-02-16T02:11:58;101042.88;;;-2.49;100.00
34034;BME280;63481;52.588;22.472;2023-02-16T02:13:05;101043.25;;;-2.52;100.00
34034;BME280;63481;52.588;22.472;2023-02-16T02:15:27;101044.23;;;-2.54;100.00
34034;BME280;63481;52.588;22.472;2023-02-16T02:16:24;101045.22;;;-2.48;100.00
34034;BME280;63481;52.588;22.472;2023-02-16T02:17:19;101044.09;;;-2.44;100.00
34034;BME280;63481;52.588;22.472;2023-02-16T02:18:13;101042.23;;;-2.39;100.00
34034;BME280;63481;52.588;22.472;2023-02-16T02:19:06;101041.94;;;-2.38;100.00
34034;BME280;63481;52.588;22.472;2023-02-16T02:27:27;101034.42;;;-2.40;100.00
34034;BME280;63481;52.588;22.472;2023-02-16T02:34:12;101032.09;;;-2.47;100.00
34034;BME280;63481;52.588;22.472;2023-02-16T02:35:31;101031.30;;;-2.48;100.00
34034;BME280;63481;52.588;22.472;2023-02-16T02:36:36;101030.33;;;-2.46;100.00
34034;BME280;63481;52.588;22.472;2023-02-16T02:38:58;101028.46;;;-2.50;100.00
34034;BME280;63481;52.588;22.472;2023-02-16T02:43:56;101024.86;;;-2.50;100.00
34034;BME280;63481;52.588;22.472;2023-02-16T02:44:55;101024.92;;;-2.54;100.00
34034;BME280;63481;52.588;22.472;2023-02-16T02:45:55;101028.57;;;-2.59;100.00
34034;BME280;63481;52.588;22.472;2023-02-16T02:46:50;101028.31;;;-2.55;100.00
34034;BME280;63481;52.588;22.472;2023-02-16T02:47:46;101029.33;;;-2.57;100.00
34034;BME280;63481;52.588;22.472;2023-02-16T02:48:39;101029.29;;;-2.59;100.00
34034;BME280;63481;52.588;22.472;2023-02-16T02:49:32;101030.54;;;-2.62;100.00
34034;BME280;63481;52.588;22.472;2023-02-16T02:50:42;101027.67;;;-2.66;100.00
34034;BME280;63481;52.588;22.472;2023-02-16T02:51:59;101028.00;;;-2.69;100.00
34034;BME280;63481;52.588;22.472;2023-02-16T02:53:03;101029.58;;;-2.71;100.00
34034;BME280;63481;52.588;22.472;2023-02-16T02:54:11;101027.77;;;-2.75;100.00
34034;BME280;63481;52.588;22.472;2023-02-16T02:55:27;101026.21;;;-2.75;100.00
34034;BME280;63481;52.588;22.472;2023-02-16T02:56:47;101025.33;;;-2.75;100.00
34034;BME280;63481;52.588;22.472;2023-02-16T02:58:00;101024.46;;;-2.75;100.00
34034;BME280;63481;52.588;22.472;2023-02-16T02:59:13;101025.77;;;-2.77;100.00
34034;BME280;63481;52.588;22.472;2023-02-16T03:00:31;101023.84;;;-2.79;100.00
34034;BME280;63481;52.588;22.472;2023-02-16T03:01:45;101025.75;;;-2.84;100.00
34034;BME280;63481;52.588;22.472;2023-02-16T03:02:40;101019.57;;;-2.85;100.00
34034;BME280;63481;52.588;22.472;2023-02-16T03:03:39;101015.95;;;-2.88;100.00
34034;BME280;63481;52.588;22.472;2023-02-16T03:04:34;101015.08;;;-2.83;100.00
34034;BME280;63481;52.588;22.472;2023-02-16T03:05:30;101013.38;;;-2.78;100.00
34034;BME280;63481;52.588;22.472;2023-02-16T03:06:27;101011.42;;;-2.73;100.00
34034;BME280;63481;52.588;22.472;2023-02-16T03:07:22;101010.13;;;-2.64;100.00
34034;BME280;63481;52.588;22.472;2023-02-16T03:08:40;101010.36;;;-2.65;100.00
34034;BME280;63481;52.588;22.472;2023-02-16T03:09:35;101012.30;;;-2.68;100.00
34034;BME280;63481;52.588;22.472;2023-02-16T03:10:29;101008.69;;;-2.68;100.00
34034;BME280;63481;52.588;22.472;2023-02-16T03:11:44;101007.80;;;-2.71;100.00
34034;BME280;63481;52.588;22.472;2023-02-16T03:12:57;101007.73;;;-2.77;100.00
34034;BME280;63481;52.588;22.472;2023-02-16T03:13:57;101006.28;;;-2.82;100.00
34034;BME280;63481;52.588;22.472;2023-02-16T03:14:56;101007.53;;;-2.84;100.00
34034;BME280;63481;52.588;22.472;2023-02-16T03:15:55;101006.39;;;-2.88;100.00
34034;BME280;63481;52.588;22.472;2023-02-16T03:16:56;101005.58;;;-2.92;100.00
34034;BME280;63481;52.588;22.472;2023-02-16T03:18:09;101004.77;;;-2.95;100.00
34034;BME280;63481;52.588;22.472;2023-02-16T03:19:21;101006.20;;;-3.01;100.00
34034;BME280;63481;52.588;22.472;2023-02-16T03:20:32;101004.47;;;-3.07;100.00
34034;BME280;63481;52.588;22.472;2023-02-16T03:21:44;101007.39;;;-3.09;100.00
34034;BME280;63481;52.588;22.472;2023-02-16T03:22:57;101007.14;;;-3.07;100.00
34034;BME280;63481;52.588;22.472;2023-02-16T03:24:12;101003.33;;;-3.08;100.00
34034;BME280;63481;52.588;22.472;2023-02-16T03:25:28;101000.16;;;-3.07;100.00
34034;BME280;63481;52.588;22.472;2023-02-16T03:26:43;101000.70;;;-3.12;100.00
34034;BME280;63481;52.588;22.472;2023-02-16T03:27:55;100997.67;;;-3.17;100.00
34034;BME280;63481;52.588;22.472;2023-02-16T03:29:08;100997.33;;;-3.19;100.00
34034;BME280;63481;52.588;22.472;2023-02-16T03:30:14;100996.94;;;-3.19;100.00
34034;BME280;63481;52.588;22.472;2023-02-16T03:31:10;100991.76;;;-3.19;100.00
34034;BME280;63481;52.588;22.472;2023-02-16T03:32:04;100989.71;;;-3.20;100.00
34034;BME280;63481;52.588;22.472;2023-02-16T03:32:58;100989.67;;;-3.17;100.00
34034;BME280;63481;52.588;22.472;2023-02-16T03:33:51;100986.71;;;-3.14;100.00
34034;BME280;63481;52.588;22.472;2023-02-16T03:34:47;100983.48;;;-3.15;100.00
34034;BME280;63481;52.588;22.472;2023-02-16T03:35:41;100985.86;;;-3.17;100.00
34034;BME280;63481;52.588;22.472;2023-02-16T03:36:38;100984.25;;;-3.16;100.00
34034;BME280;63481;52.588;22.472;2023-02-16T03:37:31;100984.92;;;-3.16;100.00
34034;BME280;63481;52.588;22.472;2023-02-16T03:38:25;100982.02;;;-3.17;100.00
34034;BME280;63481;52.588;22.472;2023-02-16T03:39:19;100983.60;;;-3.17;100.00
34034;BME280;63481;52.588;22.472;2023-02-16T03:40:15;100981.09;;;-3.18;100.00
34034;BME280;63481;52.588;22.472;2023-02-16T03:41:20;100975.58;;;-3.19;100.00
34034;BME280;63481;52.588;22.472;2023-02-16T03:42:13;100971.80;;;-3.23;100.00
34034;BME280;63481;52.588;22.472;2023-02-16T03:43:07;100970.57;;;-3.22;100.00
34034;BME280;63481;52.588;22.472;2023-02-16T03:44:00;100970.91;;;-3.22;100.00
34034;BME280;63481;52.588;22.472;2023-02-16T03:44:53;100971.01;;;-3.21;100.00
34034;BME280;63481;52.588;22.472;2023-02-16T03:45:46;100973.02;;;-3.20;100.00
34034;BME280;63481;52.588;22.472;2023-02-16T03:46:39;100971.36;;;-3.18;100.00
34034;BME280;63481;52.588;22.472;2023-02-16T03:47:33;100966.52;;;-3.21;100.00
34034;BME280;63481;52.588;22.472;2023-02-16T03:48:26;100969.52;;;-3.19;100.00
34034;BME280;63481;52.588;22.472;2023-02-16T03:49:19;100963.63;;;-3.20;100.00
34034;BME280;63481;52.588;22.472;2023-02-16T03:50:12;100967.33;;;-3.21;100.00
34034;BME280;63481;52.588;22.472;2023-02-16T03:51:06;100964.06;;;-3.24;100.00
34034;BME280;63481;52.588;22.472;2023-02-16T03:51:59;100963.59;;;-3.27;100.00
34034;BME280;63481;52.588;22.472;2023-02-16T03:52:54;100961.70;;;-3.27;100.00
34034;BME280;63481;52.588;22.472;2023-02-16T03:53:58;100957.84;;;-3.27;100.00
34034;BME280;63481;52.588;22.472;2023-02-16T03:54:52;100955.38;;;-3.21;100.00
34034;BME280;63481;52.588;22.472;2023-02-16T03:55:46;100951.33;;;-3.18;100.00
34034;BME280;63481;52.588;22.472;2023-02-16T03:56:39;100950.86;;;-3.16;100.00
34034;BME280;63481;52.588;22.472;2023-02-16T03:57:33;100951.09;;;-3.12;100.00
34034;BME280;63481;52.588;22.472;2023-02-16T03:58:26;100947.84;;;-3.05;100.00
34034;BME280;63481;52.588;22.472;2023-02-16T03:59:19;100943.52;;;-3.00;100.00
34034;BME280;63481;52.588;22.472;2023-02-16T04:00:13;100946.50;;;-2.98;100.00
34034;BME280;63481;52.588;22.472;2023-02-16T04:01:06;100945.27;;;-2.98;100.00
34034;BME280;63481;52.588;22.472;2023-02-16T04:01:59;100945.27;;;-2.95;100.00
34034;BME280;63481;52.588;22.472;2023-02-16T04:02:52;100943.19;;;-2.92;100.00
34034;BME280;63481;52.588;22.472;2023-02-16T04:03:45;100944.66;;;-2.89;100.00
34034;BME280;63481;52.588;22.472;2023-02-16T04:04:38;100950.05;;;-2.86;100.00
34034;BME280;63481;52.588;22.472;2023-02-16T04:05:32;100946.13;;;-2.87;100.00
34034;BME280;63481;52.588;22.472;2023-02-16T04:06:25;100944.74;;;-2.85;100.00
34034;BME280;63481;52.588;22.472;2023-02-16T04:07:19;100941.55;;;-2.86;100.00
34034;BME280;63481;52.588;22.472;2023-02-16T04:08:12;100938.66;;;-2.85;100.00
34034;BME280;63481;52.588;22.472;2023-02-16T04:09:05;100941.25;;;-2.87;100.00
34034;BME280;63481;52.588;22.472;2023-02-16T04:09:59;100937.25;;;-2.87;100.00
34034;BME280;63481;52.588;22.472;2023-02-16T04:10:52;100939.96;;;-2.86;100.00
34034;BME280;63481;52.588;22.472;2023-02-16T04:11:47;100939.13;;;-2.84;100.00
34034;BME280;63481;52.588;22.472;2023-02-16T04:12:59;100938.52;;;-2.88;100.00
34034;BME280;63481;52.588;22.472;2023-02-16T04:13:55;100939.55;;;-2.90;100.00
34034;BME280;63481;52.588;22.472;2023-02-16T04:14:47;100936.77;;;-2.96;100.00
34034;BME280;63481;52.588;22.472;2023-02-16T04:15:40;100936.86;;;-2.99;100.00
34034;BME280;63481;52.588;22.472;2023-02-16T04:16:33;100935.68;;;-3.00;100.00
34034;BME280;63481;52.588;22.472;2023-02-16T04:17:26;100934.33;;;-2.93;100.00
34034;BME280;63481;52.588;22.472;2023-02-16T04:18:19;100931.27;;;-2.86;100.00
34034;BME280;63481;52.588;22.472;2023-02-16T04:19:13;100926.13;;;-2.80;100.00
34034;BME280;63481;52.588;22.472;2023-02-16T04:20:09;100923.98;;;-2.79;100.00
34034;BME280;63481;52.588;22.472;2023-02-16T04:21:03;100921.48;;;-2.78;100.00
34034;BME280;63481;52.588;22.472;2023-02-16T04:21:55;100920.17;;;-2.77;100.00
34034;BME280;63481;52.588;22.472;2023-02-16T04:22:48;100920.42;;;-2.78;100.00
34034;BME280;63481;52.588;22.472;2023-02-16T04:23:42;100918.58;;;-2.81;100.00
34034;BME280;63481;52.588;22.472;2023-02-16T04:24:35;100918.23;;;-2.86;100.00
34034;BME280;63481;52.588;22.472;2023-02-16T04:25:29;100921.06;;;-2.87;100.00
34034;BME280;63481;52.588;22.472;2023-02-16T04:26:22;100924.09;;;-2.90;100.00
34034;BME280;63481;52.588;22.472;2023-02-16T04:27:15;100920.05;;;-2.95;100.00
34034;BME280;63481;52.588;22.472;2023-02-16T04:28:09;100920.27;;;-2.98;100.00
34034;BME280;63481;52.588;22.472;2023-02-16T04:29:02;100919.75;;;-3.04;100.00
34034;BME280;63481;52.588;22.472;2023-02-16T04:29:55;100918.92;;;-3.07;100.00
34034;BME280;63481;52.588;22.472;2023-02-16T04:30:48;100917.94;;;-3.10;100.00
34034;BME280;63481;52.588;22.472;2023-02-16T04:31:43;100915.59;;;-3.09;100.00
34034;BME280;63481;52.588;22.472;2023-02-16T04:32:37;100915.01;;;-3.11;100.00
34034;BME280;63481;52.588;22.472;2023-02-16T04:33:30;100914.89;;;-3.11;100.00
34034;BME280;63481;52.588;22.472;2023-02-16T04:34:24;100911.60;;;-3.12;100.00
34034;BME280;63481;52.588;22.472;2023-02-16T04:35:17;100909.79;;;-3.10;100.00
34034;BME280;63481;52.588;22.472;2023-02-16T04:36:10;100906.43;;;-3.10;100.00
34034;BME280;63481;52.588;22.472;2023-02-16T04:37:03;100904.41;;;-3.06;100.00
34034;BME280;63481;52.588;22.472;2023-02-16T04:37:57;100907.53;;;-3.06;100.00
34034;BME280;63481;52.588;22.472;2023-02-16T04:38:51;100907.34;;;-3.03;100.00
34034;BME280;63481;52.588;22.472;2023-02-16T04:39:44;100901.93;;;-3.00;100.00
34034;BME280;63481;52.588;22.472;2023-02-16T04:40:37;100900.92;;;-3.03;100.00
34034;BME280;63481;52.588;22.472;2023-02-16T04:41:30;100896.06;;;-3.03;100.00
34034;BME280;63481;52.588;22.472;2023-02-16T04:42:23;100898.86;;;-3.06;100.00
34034;BME280;63481;52.588;22.472;2023-02-16T04:43:17;100900.21;;;-3.08;100.00
34034;BME280;63481;52.588;22.472;2023-02-16T04:44:10;100894.83;;;-3.10;100.00
34034;BME280;63481;52.588;22.472;2023-02-16T04:45:03;100894.68;;;-3.13;100.00
34034;BME280;63481;52.588;22.472;2023-02-16T04:45:56;100896.23;;;-3.16;100.00
34034;BME280;63481;52.588;22.472;2023-02-16T04:46:50;100896.45;;;-3.19;100.00
34034;BME280;63481;52.588;22.472;2023-02-16T04:47:43;100896.72;;;-3.18;100.00
34034;BME280;63481;52.588;22.472;2023-02-16T04:48:36;100895.80;;;-3.17;100.00
34034;BME280;63481;52.588;22.472;2023-02-16T04:49:29;100897.13;;;-3.18;100.00
34034;BME280;63481;52.588;22.472;2023-02-16T04:50:22;100894.40;;;-3.19;100.00
34034;BME280;63481;52.588;22.472;2023-02-16T04:51:16;100889.95;;;-3.23;100.00
34034;BME280;63481;52.588;22.472;2023-02-16T04:52:11;100889.20;;;-3.27;100.00
34034;BME280;63481;52.588;22.472;2023-02-16T04:53:05;100890.70;;;-3.31;100.00
34034;BME280;63481;52.588;22.472;2023-02-16T04:53:58;100890.42;;;-3.32;100.00
34034;BME280;63481;52.588;22.472;2023-02-16T04:54:51;100889.58;;;-3.28;100.00
34034;BME280;63481;52.588;22.472;2023-02-16T04:55:48;100887.07;;;-3.26;100.00
34034;BME280;63481;52.588;22.472;2023-02-16T04:56:44;100886.35;;;-3.21;100.00
34034;BME280;63481;52.588;22.472;2023-02-16T04:57:38;100886.77;;;-3.20;100.00
34034;BME280;63481;52.588;22.472;2023-02-16T04:58:31;100884.78;;;-3.21;100.00
34034;BME280;63481;52.588;22.472;2023-02-16T04:59:25;100889.86;;;-3.19;100.00
34034;BME280;63481;52.588;22.472;2023-02-16T05:00:19;100887.45;;;-3.17;100.00
34034;BME280;63481;52.588;22.472;2023-02-16T05:01:22;100890.98;;;-3.15;100.00
34034;BME280;63481;52.588;22.472;2023-02-16T05:02:14;100886.95;;;-3.10;100.00
34034;BME280;63481;52.588;22.472;2023-02-16T05:03:08;100888.22;;;-3.05;100.00
34034;BME280;63481;52.588;22.472;2023-02-16T05:04:01;100888.97;;;-3.04;100.00
34034;BME280;63481;52.588;22.472;2023-02-16T05:04:53;100885.00;;;-3.02;100.00
34034;BME280;63481;52.588;22.472;2023-02-16T05:05:48;100882.95;;;-2.99;100.00
34034;BME280;63481;52.588;22.472;2023-02-16T05:06:41;100883.27;;;-2.99;100.00
34034;BME280;63481;52.588;22.472;2023-02-16T05:07:34;100880.89;;;-2.97;100.00
34034;BME280;63481;52.588;22.472;2023-02-16T05:08:28;100877.86;;;-2.94;100.00
34034;BME280;63481;52.588;22.472;2023-02-16T05:09:21;100882.20;;;-2.86;100.00
34034;BME280;63481;52.588;22.472;2023-02-16T05:10:14;100878.98;;;-2.80;100.00
34034;BME280;63481;52.588;22.472;2023-02-16T05:11:07;100880.05;;;-2.80;100.00
34034;BME280;63481;52.588;22.472;2023-02-16T05:12:18;100877.33;;;-2.79;100.00
34034;BME280;63481;52.588;22.472;2023-02-16T05:13:30;100873.74;;;-2.77;100.00
34034;BME280;63481;52.588;22.472;2023-02-16T05:14:42;100875.58;;;-2.73;100.00
34034;BME280;63481;52.588;22.472;2023-02-16T05:15:39;100873.77;;;-2.70;100.00
34034;BME280;63481;52.588;22.472;2023-02-16T05:16:32;100872.62;;;-2.69;100.00
34034;BME280;63481;52.588;22.472;2023-02-16T05:17:26;100874.87;;;-2.63;100.00
34034;BME280;63481;52.588;22.472;2023-02-16T05:18:19;100874.32;;;-2.58;100.00
34034;BME280;63481;52.588;22.472;2023-02-16T05:19:13;100873.48;;;-2.59;100.00
34034;BME280;63481;52.588;22.472;2023-02-16T05:20:06;100875.86;;;-2.58;100.00
34034;BME280;63481;52.588;22.472;2023-02-16T05:20:59;100873.45;;;-2.58;100.00
34034;BME280;63481;52.588;22.472;2023-02-16T05:22:11;100877.39;;;-2.60;100.00
34034;BME280;63481;52.588;22.472;2023-02-16T05:23:04;100877.36;;;-2.62;100.00
34034;BME280;63481;52.588;22.472;2023-02-16T05:24:03;100878.63;;;-2.63;100.00
34034;BME280;63481;52.588;22.472;2023-02-16T05:24:57;100880.16;;;-2.65;100.00
34034;BME280;63481;52.588;22.472;2023-02-16T05:25:50;100882.73;;;-2.67;100.00
34034;BME280;63481;52.588;22.472;2023-02-16T05:26:43;100883.82;;;-2.67;100.00
34034;BME280;63481;52.588;22.472;2023-02-16T05:27:36;100885.11;;;-2.71;100.00